sensor_id;sensor_type;location;lat;lon;timestamp;P1;durP1;ratioP1;P2;durP2;ratioP2
12165;SDS011;6146;48.128;11.476;2022-10-16T00:01:24;2.43;;;1.60;;
12165;SDS011;6146;48.128;11.476;2022-10-16T00:03:52;4.33;;;1.97;;
12165;SDS011;6146;48.128;11.476;2022-10-16T00:06:19;2.97;;;1.50;;
12165;SDS011;6146;48.128;11.476;2022-10-16T00:08:46;2.00;;;1.80;;
12165;SDS011;6146;48.128;11.476;2022-10-16T00:11:16;2.10;;;1.73;;
12165;SDS011;6146;48.128;11.476;2022-10-16T00:13:47;2.90;;;1.70;;
12165;SDS011;6146;48.128;11.476;2022-10-16T00:16:15;2.33;;;1.70;;
12165;SDS011;6146;48.128;11.476;2022-10-16T00:18:41;2.40;;;1.60;;
12165;SDS011;6146;48.128;11.476;2022-10-16T00:21:08;1.70;;;1.60;;
12165;SDS011;6146;48.128;11.476;2022-10-16T00:23:44;2.57;;;1.87;;
12165;SDS011;6146;48.128;11.476;2022-10-16T00:26:11;2.17;;;1.70;;
12165;SDS011;6146;48.128;11.476;2022-10-16T00:28:38;5.70;;;1.73;;
12165;SDS011;6146;48.128;11.476;2022-10-16T00:31:05;1.90;;;1.60;;
12165;SDS011;6146;48.128;11.476;2022-10-16T00:33:35;3.93;;;1.67;;
12165;SDS011;6146;48.128;11.476;2022-10-16T00:36:01;2.27;;;1.70;;
12165;SDS011;6146;48.128;11.476;2022-10-16T00:38:28;3.43;;;1.83;;
12165;SDS011;6146;48.128;11.476;2022-10-16T00:40:54;1.90;;;1.40;;
12165;SDS011;6146;48.128;11.476;2022-10-16T00:43:33;3.57;;;2.00;;
12165;SDS011;6146;48.128;11.476;2022-10-16T00:46:28;1.73;;;1.60;;
12165;SDS011;6146;48.128;11.476;2022-10-16T00:49:06;3.57;;;1.87;;
12165;SDS011;6146;48.128;11.476;2022-10-16T00:51:36;3.47;;;1.80;;
12165;SDS011;6146;48.128;11.476;2022-10-16T00:54:24;3.47;;;1.70;;
12165;SDS011;6146;48.128;11.476;2022-10-16T00:56:52;1.70;;;1.60;;
12165;SDS011;6146;48.128;11.476;2022-10-16T00:59:26;1.90;;;1.50;;
12165;SDS011;6146;48.128;11.476;2022-10-16T01:01:54;1.83;;;1.67;;
12165;SDS011;6146;48.128;11.476;2022-10-16T01:04:21;2.30;;;1.97;;
12165;SDS011;6146;48.128;11.476;2022-10-16T01:12:30;1.40;;;1.30;;
12165;SDS011;6146;48.128;11.476;2022-10-16T01:17:52;2.70;;;1.50;;
12165;SDS011;6146;48.128;11.476;2022-10-16T01:20:29;3.53;;;1.50;;
12165;SDS011;6146;48.128;11.476;2022-10-16T01:25:53;2.87;;;1.73;;
12165;SDS011;6146;48.128;11.476;2022-10-16T01:28:57;2.50;;;1.47;;
12165;SDS011;6146;48.128;11.476;2022-10-16T01:31:32;2.50;;;1.63;;
12165;SDS011;6146;48.128;11.476;2022-10-16T01:34:03;3.10;;;1.53;;
12165;SDS011;6146;48.128;11.476;2022-10-16T01:36:42;1.60;;;1.50;;
12165;SDS011;6146;48.128;11.476;2022-10-16T01:39:12;2.47;;;1.40;;
12165;SDS011;6146;48.128;11.476;2022-10-16T01:41:44;2.10;;;1.70;;
12165;SDS011;6146;48.128;11.476;2022-10-16T01:44:24;3.60;;;1.70;;
12165;SDS011;6146;48.128;11.476;2022-10-16T01:46:52;2.17;;;1.60;;
12165;SDS011;6146;48.128;11.476;2022-10-16T01:49:20;2.30;;;1.50;;
12165;SDS011;6146;48.128;11.476;2022-10-16T01:51:49;1.90;;;1.57;;
12165;SDS011;6146;48.128;11.476;2022-10-16T01:54:19;1.50;;;1.40;;
12165;SDS011;6146;48.128;11.476;2022-10-16T01:56:47;2.77;;;1.70;;
12165;SDS011;6146;48.128;11.476;2022-10-16T01:59:16;3.63;;;1.67;;
12165;SDS011;6146;48.128;11.476;2022-10-16T02:01:47;2.57;;;1.77;;
12165;SDS011;6146;48.128;11.476;2022-10-16T02:07:06;3.97;;;1.83;;
12165;SDS011;6146;48.128;11.476;2022-10-16T02:09:33;3.00;;;1.53;;
12165;SDS011;6146;48.128;11.476;2022-10-16T02:12:00;2.07;;;1.70;;
12165;SDS011;6146;48.128;11.476;2022-10-16T02:14:48;2.97;;;1.73;;
12165;SDS011;6146;48.128;11.476;2022-10-16T02:17:15;2.13;;;1.50;;
12165;SDS011;6146;48.128;11.476;2022-10-16T02:19:42;2.43;;;1.40;;
12165;SDS011;6146;48.128;11.476;2022-10-16T02:22:15;2.87;;;1.83;;
12165;SDS011;6146;48.128;11.476;2022-10-16T02:24:58;3.37;;;1.70;;
12165;SDS011;6146;48.128;11.476;2022-10-16T02:27:40;1.77;;;1.47;;
12165;SDS011;6146;48.128;11.476;2022-10-16T02:30:38;2.80;;;1.90;;
12165;SDS011;6146;48.128;11.476;2022-10-16T02:33:09;1.80;;;1.67;;
12165;SDS011;6146;48.128;11.476;2022-10-16T02:35:38;2.17;;;1.40;;
12165;SDS011;6146;48.128;11.476;2022-10-16T02:38:06;2.70;;;1.63;;
12165;SDS011;6146;48.128;11.476;2022-10-16T02:40:34;3.33;;;1.70;;
12165;SDS011;6146;48.128;11.476;2022-10-16T02:43:00;1.93;;;1.33;;
12165;SDS011;6146;48.128;11.476;2022-10-16T02:45:29;1.50;;;1.40;;
12165;SDS011;6146;48.128;11.476;2022-10-16T02:47:54;1.70;;;1.37;;
12165;SDS011;6146;48.128;11.476;2022-10-16T02:50:20;1.90;;;1.70;;
12165;SDS011;6146;48.128;11.476;2022-10-16T02:52:46;2.87;;;1.73;;
12165;SDS011;6146;48.128;11.476;2022-10-16T02:55:11;1.77;;;1.40;;
12165;SDS011;6146;48.128;11.476;2022-10-16T02:57:37;1.60;;;1.50;;
12165;SDS011;6146;48.128;11.476;2022-10-16T03:00:05;2.80;;;1.50;;
12165;SDS011;6146;48.128;11.476;2022-10-16T03:02:32;2.13;;;1.63;;
12165;SDS011;6146;48.128;11.476;2022-10-16T03:04:58;1.50;;;1.40;;
12165;SDS011;6146;48.128;11.476;2022-10-16T03:07:24;2.80;;;1.47;;
12165;SDS011;6146;48.128;11.476;2022-10-16T03:09:49;1.53;;;1.43;;
12165;SDS011;6146;48.128;11.476;2022-10-16T03:12:15;2.23;;;1.50;;
12165;SDS011;6146;48.128;11.476;2022-10-16T03:14:40;1.90;;;1.33;;
12165;SDS011;6146;48.128;11.476;2022-10-16T03:17:06;3.80;;;1.60;;
12165;SDS011;6146;48.128;11.476;2022-10-16T03:19:31;1.67;;;1.50;;
12165;SDS011;6146;48.128;11.476;2022-10-16T03:21:57;1.60;;;1.50;;
12165;SDS011;6146;48.128;11.476;2022-10-16T03:24:22;1.90;;;1.40;;
12165;SDS011;6146;48.128;11.476;2022-10-16T03:26:48;2.87;;;1.27;;
12165;SDS011;6146;48.128;11.476;2022-10-16T03:29:14;1.70;;;1.60;;
12165;SDS011;6146;48.128;11.476;2022-10-16T03:31:39;1.30;;;1.20;;
12165;SDS011;6146;48.128;11.476;2022-10-16T03:34:05;2.17;;;1.60;;
12165;SDS011;6146;48.128;11.476;2022-10-16T03:36:30;2.43;;;1.40;;
12165;SDS011;6146;48.128;11.476;2022-10-16T03:38:56;1.80;;;1.37;;
12165;SDS011;6146;48.128;11.476;2022-10-16T03:41:22;1.67;;;1.37;;
12165;SDS011;6146;48.128;11.476;2022-10-16T03:43:47;1.70;;;1.40;;
12165;SDS011;6146;48.128;11.476;2022-10-16T03:46:13;1.77;;;1.50;;
12165;SDS011;6146;48.128;11.476;2022-10-16T03:48:38;1.80;;;1.30;;
12165;SDS011;6146;48.128;11.476;2022-10-16T03:51:05;1.30;;;1.20;;
12165;SDS011;6146;48.128;11.476;2022-10-16T03:53:30;2.20;;;1.27;;
12165;SDS011;6146;48.128;11.476;2022-10-16T03:55:56;1.90;;;1.63;;
12165;SDS011;6146;48.128;11.476;2022-10-16T03:58:22;1.97;;;1.60;;
12165;SDS011;6146;48.128;11.476;2022-10-16T04:00:47;1.70;;;1.50;;
12165;SDS011;6146;48.128;11.476;2022-10-16T04:03:13;1.77;;;1.50;;
12165;SDS011;6146;48.128;11.476;2022-10-16T04:05:38;1.87;;;1.43;;
12165;SDS011;6146;48.128;11.476;2022-10-16T04:08:04;2.00;;;1.80;;
12165;SDS011;6146;48.128;11.476;2022-10-16T04:10:30;1.57;;;1.40;;
12165;SDS011;6146;48.128;11.476;2022-10-16T04:12:56;2.27;;;1.70;;
12165;SDS011;6146;48.128;11.476;2022-10-16T04:15:22;1.80;;;1.70;;
12165;SDS011;6146;48.128;11.476;2022-10-16T04:17:47;3.20;;;1.77;;
12165;SDS011;6146;48.128;11.476;2022-10-16T04:20:13;1.50;;;1.40;;
12165;SDS011;6146;48.128;11.476;2022-10-16T04:22:39;1.50;;;1.40;;
12165;SDS011;6146;48.128;11.476;2022-10-16T04:25:05;1.50;;;1.40;;
12165;SDS011;6146;48.128;11.476;2022-10-16T04:27:31;2.10;;;1.70;;
12165;SDS011;6146;48.128;11.476;2022-10-16T04:29:59;2.33;;;1.30;;
12165;SDS011;6146;48.128;11.476;2022-10-16T04:32:26;1.77;;;1.50;;
12165;SDS011;6146;48.128;11.476;2022-10-16T04:34:52;2.13;;;1.60;;
12165;SDS011;6146;48.128;11.476;2022-10-16T04:37:18;1.70;;;1.60;;
12165;SDS011;6146;48.128;11.476;2022-10-16T04:39:43;1.67;;;1.57;;
12165;SDS011;6146;48.128;11.476;2022-10-16T04:42:09;3.93;;;1.90;;
12165;SDS011;6146;48.128;11.476;2022-10-16T04:44:35;1.90;;;1.63;;
12165;SDS011;6146;48.128;11.476;2022-10-16T04:47:01;2.27;;;1.70;;
12165;SDS011;6146;48.128;11.476;2022-10-16T04:49:26;3.37;;;1.60;;
12165;SDS011;6146;48.128;11.476;2022-10-16T04:51:52;3.00;;;1.60;;
12165;SDS011;6146;48.128;11.476;2022-10-16T04:54:17;1.93;;;1.70;;
12165;SDS011;6146;48.128;11.476;2022-10-16T04:56:43;1.73;;;1.47;;
12165;SDS011;6146;48.128;11.476;2022-10-16T04:59:12;1.83;;;1.50;;
12165;SDS011;6146;48.128;11.476;2022-10-16T05:01:39;2.57;;;1.50;;
12165;SDS011;6146;48.128;11.476;2022-10-16T05:04:04;2.47;;;1.67;;
12165;SDS011;6146;48.128;11.476;2022-10-16T05:06:30;1.77;;;1.67;;
12165;SDS011;6146;48.128;11.476;2022-10-16T05:08:55;2.53;;;1.70;;
12165;SDS011;6146;48.128;11.476;2022-10-16T05:11:21;3.17;;;1.63;;
12165;SDS011;6146;48.128;11.476;2022-10-16T05:13:46;2.37;;;1.60;;
12165;SDS011;6146;48.128;11.476;2022-10-16T05:16:12;1.53;;;1.37;;
12165;SDS011;6146;48.128;11.476;2022-10-16T05:18:37;1.60;;;1.50;;
12165;SDS011;6146;48.128;11.476;2022-10-16T05:21:03;1.80;;;1.70;;
12165;SDS011;6146;48.128;11.476;2022-10-16T05:23:28;3.10;;;2.10;;
12165;SDS011;6146;48.128;11.476;2022-10-16T05:25:57;2.03;;;1.80;;
12165;SDS011;6146;48.128;11.476;2022-10-16T05:28:25;2.03;;;1.57;;
12165;SDS011;6146;48.128;11.476;2022-10-16T05:30:51;3.00;;;2.03;;
12165;SDS011;6146;48.128;11.476;2022-10-16T05:33:19;2.27;;;1.70;;
12165;SDS011;6146;48.128;11.476;2022-10-16T05:35:45;2.57;;;2.00;;
12165;SDS011;6146;48.128;11.476;2022-10-16T05:38:11;3.70;;;2.00;;
12165;SDS011;6146;48.128;11.476;2022-10-16T05:40:37;1.73;;;1.60;;
12165;SDS011;6146;48.128;11.476;2022-10-16T05:43:02;2.23;;;1.90;;
12165;SDS011;6146;48.128;11.476;2022-10-16T05:45:28;2.83;;;1.80;;
12165;SDS011;6146;48.128;11.476;2022-10-16T05:47:53;2.37;;;1.80;;
12165;SDS011;6146;48.128;11.476;2022-10-16T05:50:19;3.00;;;1.70;;
12165;SDS011;6146;48.128;11.476;2022-10-16T05:52:44;3.47;;;1.60;;
12165;SDS011;6146;48.128;11.476;2022-10-16T05:55:10;2.80;;;1.90;;
12165;SDS011;6146;48.128;11.476;2022-10-16T05:57:35;1.80;;;1.63;;
12165;SDS011;6146;48.128;11.476;2022-10-16T06:00:02;2.60;;;1.77;;
12165;SDS011;6146;48.128;11.476;2022-10-16T06:02:28;2.10;;;1.90;;
12165;SDS011;6146;48.128;11.476;2022-10-16T06:04:53;2.50;;;2.20;;
12165;SDS011;6146;48.128;11.476;2022-10-16T06:07:19;2.17;;;1.90;;
12165;SDS011;6146;48.128;11.476;2022-10-16T06:09:47;1.90;;;1.80;;
12165;SDS011;6146;48.128;11.476;2022-10-16T06:12:14;2.20;;;1.80;;
12165;SDS011;6146;48.128;11.476;2022-10-16T06:14:40;3.37;;;2.10;;
12165;SDS011;6146;48.128;11.476;2022-10-16T06:17:06;3.40;;;2.23;;
12165;SDS011;6146;48.128;11.476;2022-10-16T06:19:31;1.73;;;1.60;;
12165;SDS011;6146;48.128;11.476;2022-10-16T06:21:57;3.20;;;2.03;;
12165;SDS011;6146;48.128;11.476;2022-10-16T06:24:23;2.50;;;1.77;;
12165;SDS011;6146;48.128;11.476;2022-10-16T06:26:49;2.00;;;1.70;;
12165;SDS011;6146;48.128;11.476;2022-10-16T06:29:15;2.57;;;1.93;;
12165;SDS011;6146;48.128;11.476;2022-10-16T06:31:40;3.33;;;2.20;;
12165;SDS011;6146;48.128;11.476;2022-10-16T06:34:08;3.20;;;1.77;;
12165;SDS011;6146;48.128;11.476;2022-10-16T06:36:35;2.97;;;2.00;;
12165;SDS011;6146;48.128;11.476;2022-10-16T06:39:02;2.73;;;2.03;;
12165;SDS011;6146;48.128;11.476;2022-10-16T06:41:28;2.77;;;1.90;;
12165;SDS011;6146;48.128;11.476;2022-10-16T06:43:53;5.53;;;2.00;;
12165;SDS011;6146;48.128;11.476;2022-10-16T06:46:21;2.53;;;1.70;;
12165;SDS011;6146;48.128;11.476;2022-10-16T06:48:48;2.40;;;2.20;;
12165;SDS011;6146;48.128;11.476;2022-10-16T06:51:14;2.90;;;2.07;;
12165;SDS011;6146;48.128;11.476;2022-10-16T06:53:43;2.43;;;2.23;;
12165;SDS011;6146;48.128;11.476;2022-10-16T06:56:11;4.10;;;1.87;;
12165;SDS011;6146;48.128;11.476;2022-10-16T06:58:38;2.93;;;2.20;;
12165;SDS011;6146;48.128;11.476;2022-10-16T07:01:05;3.53;;;2.30;;
12165;SDS011;6146;48.128;11.476;2022-10-16T07:03:31;4.33;;;2.10;;
12165;SDS011;6146;48.128;11.476;2022-10-16T07:05:57;2.63;;;2.00;;
12165;SDS011;6146;48.128;11.476;2022-10-16T07:08:26;2.30;;;2.10;;
12165;SDS011;6146;48.128;11.476;2022-10-16T07:10:57;2.13;;;1.93;;
12165;SDS011;6146;48.128;11.476;2022-10-16T07:13:24;2.40;;;2.00;;
12165;SDS011;6146;48.128;11.476;2022-10-16T07:15:50;2.63;;;2.00;;
12165;SDS011;6146;48.128;11.476;2022-10-16T07:18:15;1.53;;;1.43;;
12165;SDS011;6146;48.128;11.476;2022-10-16T07:20:41;3.03;;;1.90;;
12165;SDS011;6146;48.128;11.476;2022-10-16T07:23:07;1.80;;;1.70;;
12165;SDS011;6146;48.128;11.476;2022-10-16T07:25:32;2.17;;;1.83;;
12165;SDS011;6146;48.128;11.476;2022-10-16T07:27:58;2.30;;;2.10;;
12165;SDS011;6146;48.128;11.476;2022-10-16T07:30:23;2.00;;;1.80;;
12165;SDS011;6146;48.128;11.476;2022-10-16T07:32:49;2.90;;;1.67;;
12165;SDS011;6146;48.128;11.476;2022-10-16T07:35:14;2.13;;;1.87;;
12165;SDS011;6146;48.128;11.476;2022-10-16T07:37:43;2.03;;;1.90;;
12165;SDS011;6146;48.128;11.476;2022-10-16T07:40:10;5.50;;;1.90;;
12165;SDS011;6146;48.128;11.476;2022-10-16T07:42:36;2.47;;;2.10;;
12165;SDS011;6146;48.128;11.476;2022-10-16T07:45:02;2.10;;;1.90;;
12165;SDS011;6146;48.128;11.476;2022-10-16T07:47:27;2.17;;;1.90;;
12165;SDS011;6146;48.128;11.476;2022-10-16T07:49:53;3.07;;;2.20;;
12165;SDS011;6146;48.128;11.476;2022-10-16T07:52:18;2.40;;;2.00;;
12165;SDS011;6146;48.128;11.476;2022-10-16T07:54:44;1.97;;;1.77;;
12165;SDS011;6146;48.128;11.476;2022-10-16T07:57:10;1.70;;;1.60;;
12165;SDS011;6146;48.128;11.476;2022-10-16T07:59:35;2.33;;;2.13;;
12165;SDS011;6146;48.128;11.476;2022-10-16T08:02:01;3.30;;;1.83;;
12165;SDS011;6146;48.128;11.476;2022-10-16T08:04:26;2.83;;;1.90;;
12165;SDS011;6146;48.128;11.476;2022-10-16T08:06:52;1.85;;;1.75;;
12165;SDS011;6146;48.128;11.476;2022-10-16T08:09:19;2.58;;;2.00;;
12165;SDS011;6146;48.128;11.476;2022-10-16T08:11:44;2.10;;;1.85;;
12165;SDS011;6146;48.128;11.476;2022-10-16T08:14:10;2.00;;;1.85;;
12165;SDS011;6146;48.128;11.476;2022-10-16T08:16:35;2.58;;;1.88;;
12165;SDS011;6146;48.128;11.476;2022-10-16T08:19:01;2.63;;;2.17;;
12165;SDS011;6146;48.128;11.476;2022-10-16T08:21:27;2.15;;;1.95;;
12165;SDS011;6146;48.128;11.476;2022-10-16T08:23:53;2.40;;;2.20;;
12165;SDS011;6146;48.128;11.476;2022-10-16T08:26:19;2.15;;;1.95;;
12165;SDS011;6146;48.128;11.476;2022-10-16T08:28:45;2.08;;;1.90;;
12165;SDS011;6146;48.128;11.476;2022-10-16T08:31:14;2.47;;;1.90;;
12165;SDS011;6146;48.128;11.476;2022-10-16T08:33:40;2.72;;;1.98;;
12165;SDS011;6146;48.128;11.476;2022-10-16T08:36:07;2.25;;;2.00;;
12165;SDS011;6146;48.128;11.476;2022-10-16T08:38:35;2.17;;;1.98;;
12165;SDS011;6146;48.128;11.476;2022-10-16T08:48:58;2.92;;;1.80;;
12165;SDS011;6146;48.128;11.476;2022-10-16T08:51:31;3.05;;;1.80;;
12165;SDS011;6146;48.128;11.476;2022-10-16T08:54:03;2.58;;;1.70;;
12165;SDS011;6146;48.128;11.476;2022-10-16T08:56:49;1.67;;;1.58;;
12165;SDS011;6146;48.128;11.476;2022-10-16T08:59:14;2.83;;;1.92;;
12165;SDS011;6146;48.128;11.476;2022-10-16T09:01:45;2.05;;;1.48;;
12165;SDS011;6146;48.128;11.476;2022-10-16T09:04:26;3.70;;;1.90;;
12165;SDS011;6146;48.128;11.476;2022-10-16T09:07:26;2.17;;;1.55;;
12165;SDS011;6146;48.128;11.476;2022-10-16T09:10:23;1.88;;;1.77;;
12165;SDS011;6146;48.128;11.476;2022-10-16T09:13:11;1.75;;;1.65;;
12165;SDS011;6146;48.128;11.476;2022-10-16T09:15:52;2.22;;;1.75;;
12165;SDS011;6146;48.128;11.476;2022-10-16T09:18:39;2.65;;;1.75;;
12165;SDS011;6146;48.128;11.476;2022-10-16T09:21:11;2.35;;;1.67;;
12165;SDS011;6146;48.128;11.476;2022-10-16T09:23:43;1.77;;;1.60;;
12165;SDS011;6146;48.128;11.476;2022-10-16T09:26:10;2.05;;;1.90;;
12165;SDS011;6146;48.128;11.476;2022-10-16T09:28:38;1.70;;;1.60;;
12165;SDS011;6146;48.128;11.476;2022-10-16T09:31:04;1.98;;;1.70;;
12165;SDS011;6146;48.128;11.476;2022-10-16T09:33:30;3.80;;;1.70;;
12165;SDS011;6146;48.128;11.476;2022-10-16T09:36:00;2.50;;;2.22;;
12165;SDS011;6146;48.128;11.476;2022-10-16T09:38:30;1.77;;;1.67;;
12165;SDS011;6146;48.128;11.476;2022-10-16T09:40:58;2.05;;;1.85;;
12165;SDS011;6146;48.128;11.476;2022-10-16T09:46:25;2.40;;;2.20;;
12165;SDS011;6146;48.128;11.476;2022-10-16T09:48:57;2.90;;;2.10;;
12165;SDS011;6146;48.128;11.476;2022-10-16T09:51:43;1.98;;;1.88;;
12165;SDS011;6146;48.128;11.476;2022-10-16T09:56:35;2.08;;;1.88;;
12165;SDS011;6146;48.128;11.476;2022-10-16T09:59:14;3.05;;;1.77;;
12165;SDS011;6146;48.128;11.476;2022-10-16T10:01:42;1.60;;;1.50;;
12165;SDS011;6146;48.128;11.476;2022-10-16T10:04:11;1.50;;;1.40;;
12165;SDS011;6146;48.128;11.476;2022-10-16T10:06:40;1.63;;;1.33;;
12165;SDS011;6146;48.128;11.476;2022-10-16T10:11:54;1.60;;;1.50;;
12165;SDS011;6146;48.128;11.476;2022-10-16T10:14:28;1.40;;;1.30;;
12165;SDS011;6146;48.128;11.476;2022-10-16T10:19:46;1.30;;;1.20;;
12165;SDS011;6146;48.128;11.476;2022-10-16T10:22:16;1.70;;;1.50;;
12165;SDS011;6146;48.128;11.476;2022-10-16T10:24:43;1.40;;;1.30;;
12165;SDS011;6146;48.128;11.476;2022-10-16T10:27:19;3.42;;;1.70;;
12165;SDS011;6146;48.128;11.476;2022-10-16T10:29:53;1.60;;;1.23;;
12165;SDS011;6146;48.128;11.476;2022-10-16T10:32:54;1.38;;;1.27;;
12165;SDS011;6146;48.128;11.476;2022-10-16T10:40:51;1.30;;;1.20;;
12165;SDS011;6146;48.128;11.476;2022-10-16T10:46:23;2.35;;;1.70;;
12165;SDS011;6146;48.128;11.476;2022-10-16T10:49:03;2.22;;;1.73;;
12165;SDS011;6146;48.128;11.476;2022-10-16T11:00:47;1.50;;;1.40;;
12165;SDS011;6146;48.128;11.476;2022-10-16T11:03:35;1.63;;;1.33;;
12165;SDS011;6146;48.128;11.476;2022-10-16T11:06:22;2.33;;;1.23;;
12165;SDS011;6146;48.128;11.476;2022-10-16T11:09:15;1.45;;;1.35;;
12165;SDS011;6146;48.128;11.476;2022-10-16T11:11:55;1.40;;;1.30;;
12165;SDS011;6146;48.128;11.476;2022-10-16T11:14:30;1.98;;;1.25;;
12165;SDS011;6146;48.128;11.476;2022-10-16T11:19:50;2.03;;;1.27;;
12165;SDS011;6146;48.128;11.476;2022-10-16T11:22:25;1.90;;;1.30;;
12165;SDS011;6146;48.128;11.476;2022-10-16T11:25:11;1.10;;;1.00;;
12165;SDS011;6146;48.128;11.476;2022-10-16T11:30:28;1.42;;;1.20;;
12165;SDS011;6146;48.128;11.476;2022-10-16T11:39:00;1.10;;;1.00;;
12165;SDS011;6146;48.128;11.476;2022-10-16T11:41:47;2.35;;;1.25;;
12165;SDS011;6146;48.128;11.476;2022-10-16T11:44:27;1.30;;;1.10;;
12165;SDS011;6146;48.128;11.476;2022-10-16T11:47:19;0.93;;;0.93;;
12165;SDS011;6146;48.128;11.476;2022-10-16T11:49:49;1.05;;;1.05;;
12165;SDS011;6146;48.128;11.476;2022-10-16T11:52:25;1.42;;;1.00;;
12165;SDS011;6146;48.128;11.476;2022-10-16T11:55:01;2.08;;;1.20;;
12165;SDS011;6146;48.128;11.476;2022-10-16T11:57:35;1.60;;;1.40;;
12165;SDS011;6146;48.128;11.476;2022-10-16T12:00:25;1.17;;;1.10;;
12165;SDS011;6146;48.128;11.476;2022-10-16T12:08:10;1.60;;;1.23;;
12165;SDS011;6146;48.128;11.476;2022-10-16T12:10:38;1.40;;;1.30;;
12165;SDS011;6146;48.128;11.476;2022-10-16T12:19:03;1.70;;;1.10;;
12165;SDS011;6146;48.128;11.476;2022-10-16T12:21:38;1.58;;;0.90;;
12165;SDS011;6146;48.128;11.476;2022-10-16T12:24:04;1.02;;;1.00;;
12165;SDS011;6146;48.128;11.476;2022-10-16T12:26:34;0.90;;;0.90;;
12165;SDS011;6146;48.128;11.476;2022-10-16T12:29:14;1.17;;;0.95;;
12165;SDS011;6146;48.128;11.476;2022-10-16T12:31:48;0.90;;;0.90;;
12165;SDS011;6146;48.128;11.476;2022-10-16T12:34:57;1.20;;;1.10;;
12165;SDS011;6146;48.128;11.476;2022-10-16T12:39:48;0.93;;;0.93;;
12165;SDS011;6146;48.128;11.476;2022-10-16T12:42:33;1.25;;;0.90;;
12165;SDS011;6146;48.128;11.476;2022-10-16T12:44:59;0.90;;;0.90;;
12165;SDS011;6146;48.128;11.476;2022-10-16T12:49:58;1.25;;;1.13;;
12165;SDS011;6146;48.128;11.476;2022-10-16T12:54:58;1.33;;;1.05;;
12165;SDS011;6146;48.128;11.476;2022-10-16T13:00:04;0.95;;;0.70;;
12165;SDS011;6146;48.128;11.476;2022-10-16T13:08:33;11.40;;;1.50;;
12165;SDS011;6146;48.128;11.476;2022-10-16T13:13:49;0.70;;;0.70;;
12165;SDS011;6146;48.128;11.476;2022-10-16T13:16:37;0.70;;;0.70;;
12165;SDS011;6146;48.128;11.476;2022-10-16T13:19:15;0.52;;;0.50;;
12165;SDS011;6146;48.128;11.476;2022-10-16T13:22:51;1.38;;;0.70;;
12165;SDS011;6146;48.128;11.476;2022-10-16T13:25:13;0.70;;;0.65;;
12165;SDS011;6146;48.128;11.476;2022-10-16T13:28:15;0.60;;;0.60;;
12165;SDS011;6146;48.128;11.476;2022-10-16T13:33:07;2.20;;;0.90;;
12165;SDS011;6146;48.128;11.476;2022-10-16T13:35:49;0.73;;;0.73;;
12165;SDS011;6146;48.128;11.476;2022-10-16T13:38:20;0.90;;;0.90;;
12165;SDS011;6146;48.128;11.476;2022-10-16T13:41:04;1.40;;;0.93;;
12165;SDS011;6146;48.128;11.476;2022-10-16T13:43:32;0.60;;;0.60;;
12165;SDS011;6146;48.128;11.476;2022-10-16T13:46:06;1.83;;;0.75;;
12165;SDS011;6146;48.128;11.476;2022-10-16T13:48:37;0.90;;;0.70;;
12165;SDS011;6146;48.128;11.476;2022-10-16T13:51:06;1.63;;;1.00;;
12165;SDS011;6146;48.128;11.476;2022-10-16T13:53:40;0.77;;;0.67;;
12165;SDS011;6146;48.128;11.476;2022-10-16T13:56:12;4.63;;;0.90;;
12165;SDS011;6146;48.128;11.476;2022-10-16T13:58:40;0.90;;;0.90;;
12165;SDS011;6146;48.128;11.476;2022-10-16T14:01:40;1.47;;;0.87;;
12165;SDS011;6146;48.128;11.476;2022-10-16T14:04:07;0.90;;;0.90;;
12165;SDS011;6146;48.128;11.476;2022-10-16T14:06:35;1.17;;;1.00;;
12165;SDS011;6146;48.128;11.476;2022-10-16T14:09:05;0.87;;;0.80;;
12165;SDS011;6146;48.128;11.476;2022-10-16T14:11:33;1.10;;;0.70;;
12165;SDS011;6146;48.128;11.476;2022-10-16T14:14:11;0.83;;;0.83;;
12165;SDS011;6146;48.128;11.476;2022-10-16T14:16:37;0.70;;;0.70;;
12165;SDS011;6146;48.128;11.476;2022-10-16T14:19:13;4.40;;;1.07;;
12165;SDS011;6146;48.128;11.476;2022-10-16T14:21:49;0.80;;;0.80;;
12165;SDS011;6146;48.128;11.476;2022-10-16T14:24:22;1.07;;;0.80;;
12165;SDS011;6146;48.128;11.476;2022-10-16T14:26:56;1.17;;;0.80;;
12165;SDS011;6146;48.128;11.476;2022-10-16T14:29:22;1.07;;;0.97;;
12165;SDS011;6146;48.128;11.476;2022-10-16T14:31:59;0.80;;;0.80;;
12165;SDS011;6146;48.128;11.476;2022-10-16T14:36:55;0.67;;;0.67;;
12165;SDS011;6146;48.128;11.476;2022-10-16T14:39:23;1.40;;;0.90;;
12165;SDS011;6146;48.128;11.476;2022-10-16T14:41:51;1.13;;;0.90;;
12165;SDS011;6146;48.128;11.476;2022-10-16T14:44:17;0.90;;;0.90;;
12165;SDS011;6146;48.128;11.476;2022-10-16T14:46:43;3.13;;;1.07;;
12165;SDS011;6146;48.128;11.476;2022-10-16T14:51:36;0.90;;;0.90;;
12165;SDS011;6146;48.128;11.476;2022-10-16T14:54:02;2.77;;;1.10;;
12165;SDS011;6146;48.128;11.476;2022-10-16T14:56:29;1.07;;;0.90;;
12165;SDS011;6146;48.128;11.476;2022-10-16T14:59:07;0.87;;;0.87;;
12165;SDS011;6146;48.128;11.476;2022-10-16T15:01:38;1.50;;;1.00;;
12165;SDS011;6146;48.128;11.476;2022-10-16T15:04:03;1.37;;;0.80;;
12165;SDS011;6146;48.128;11.476;2022-10-16T15:06:29;0.90;;;0.90;;
12165;SDS011;6146;48.128;11.476;2022-10-16T15:08:54;3.13;;;1.00;;
12165;SDS011;6146;48.128;11.476;2022-10-16T15:11:20;2.07;;;1.10;;
12165;SDS011;6146;48.128;11.476;2022-10-16T15:13:46;1.33;;;1.10;;
12165;SDS011;6146;48.128;11.476;2022-10-16T15:16:12;0.90;;;0.90;;
12165;SDS011;6146;48.128;11.476;2022-10-16T15:18:41;1.30;;;1.20;;
12165;SDS011;6146;48.128;11.476;2022-10-16T15:21:07;1.20;;;1.10;;
12165;SDS011;6146;48.128;11.476;2022-10-16T15:23:37;2.30;;;1.17;;
12165;SDS011;6146;48.128;11.476;2022-10-16T15:26:03;2.27;;;1.07;;
12165;SDS011;6146;48.128;11.476;2022-10-16T15:28:29;1.20;;;1.10;;
12165;SDS011;6146;48.128;11.476;2022-10-16T15:30:55;1.10;;;1.00;;
12165;SDS011;6146;48.128;11.476;2022-10-16T15:33:22;2.20;;;1.50;;
12165;SDS011;6146;48.128;11.476;2022-10-16T15:35:54;1.20;;;1.10;;
12165;SDS011;6146;48.128;11.476;2022-10-16T15:38:21;1.13;;;1.03;;
12165;SDS011;6146;48.128;11.476;2022-10-16T15:40:47;3.43;;;1.20;;
12165;SDS011;6146;48.128;11.476;2022-10-16T15:43:13;1.20;;;1.10;;
12165;SDS011;6146;48.128;11.476;2022-10-16T15:45:39;1.63;;;1.20;;
12165;SDS011;6146;48.128;11.476;2022-10-16T15:48:04;4.33;;;1.30;;
12165;SDS011;6146;48.128;11.476;2022-10-16T15:50:30;1.70;;;1.20;;
12165;SDS011;6146;48.128;11.476;2022-10-16T15:52:57;1.43;;;1.33;;
12165;SDS011;6146;48.128;11.476;2022-10-16T15:55:23;1.70;;;1.30;;
12165;SDS011;6146;48.128;11.476;2022-10-16T15:57:49;1.93;;;1.40;;
12165;SDS011;6146;48.128;11.476;2022-10-16T16:00:15;2.73;;;1.50;;
12165;SDS011;6146;48.128;11.476;2022-10-16T16:02:43;1.90;;;1.20;;
12165;SDS011;6146;48.128;11.476;2022-10-16T16:05:14;1.70;;;1.20;;
12165;SDS011;6146;48.128;11.476;2022-10-16T16:07:39;3.00;;;1.60;;
12165;SDS011;6146;48.128;11.476;2022-10-16T16:10:06;1.50;;;1.40;;
12165;SDS011;6146;48.128;11.476;2022-10-16T16:12:33;2.77;;;1.80;;
12165;SDS011;6146;48.128;11.476;2022-10-16T16:14:59;1.60;;;1.40;;
12165;SDS011;6146;48.128;11.476;2022-10-16T16:17:24;2.93;;;1.53;;
12165;SDS011;6146;48.128;11.476;2022-10-16T16:19:50;2.07;;;1.50;;
12165;SDS011;6146;48.128;11.476;2022-10-16T16:22:16;1.57;;;1.37;;
12165;SDS011;6146;48.128;11.476;2022-10-16T16:24:42;2.83;;;1.50;;
12165;SDS011;6146;48.128;11.476;2022-10-16T16:27:08;2.13;;;1.40;;
12165;SDS011;6146;48.128;11.476;2022-10-16T16:29:33;2.90;;;1.67;;
12165;SDS011;6146;48.128;11.476;2022-10-16T16:32:00;2.10;;;1.73;;
12165;SDS011;6146;48.128;11.476;2022-10-16T16:34:26;2.13;;;1.77;;
12165;SDS011;6146;48.128;11.476;2022-10-16T16:36:53;3.33;;;2.00;;
12165;SDS011;6146;48.128;11.476;2022-10-16T16:39:19;4.57;;;1.90;;
12165;SDS011;6146;48.128;11.476;2022-10-16T16:41:44;4.13;;;2.07;;
12165;SDS011;6146;48.128;11.476;2022-10-16T16:44:10;3.30;;;2.20;;